Xunwu, China
Current Conditions -  °F | °C
As of 12:00 PM on Saturday 25 Oct 2014 (Local Time) from ZGOW Reporting Station
Clear Clear  
Wind Chill: 27°   Ceiling: Unl
Heat Index: 28°   Visibility: 6mi
Dew Point: 18°   Wind: 4mph
Humidity: 58%   Direction: 80°E
Pressure: 30.06"   Gusts: NA
Location:  24.95°N, 115.65°E
Report Text: ZGOW 250400Z 08002MPS 350V140 CAVOK 27/18 Q1018 NOSIG
Loading
Personal Weather Stations






























Interactive Weather Map
Tropical Storm Tracking
New forecast layout! Learn more

10-Day Weather Forecast

Advertisements
Track Severe Weather on mobile